sensor_id;sensor_type;location;lat;lon;timestamp;pressure;altitude;pressure_sealevel;temperature;humidity
57827;BME280;43656;57.746;11.780;2023-06-04T00:01:09;101852.75;;;13.50;78.10
57827;BME280;43656;57.746;11.780;2023-06-04T00:03:34;101848.75;;;13.46;78.42
57827;BME280;43656;57.746;11.780;2023-06-04T00:06:00;101844.94;;;13.40;78.55
57827;BME280;43656;57.746;11.780;2023-06-04T00:08:25;101844.31;;;13.38;78.78
57827;BME280;43656;57.746;11.780;2023-06-04T00:10:51;101829.63;;;13.26;79.08
57827;BME280;43656;57.746;11.780;2023-06-04T00:13:18;101841.78;;;13.36;79.37
57827;BME280;43656;57.746;11.780;2023-06-04T00:15:43;101828.81;;;13.25;79.44
57827;BME280;43656;57.746;11.780;2023-06-04T00:18:09;101851.31;;;13.32;79.53
57827;BME280;43656;57.746;11.780;2023-06-04T00:20:36;101833.06;;;13.20;79.91
57827;BME280;43656;57.746;11.780;2023-06-04T00:23:02;101845.16;;;13.24;79.77
57827;BME280;43656;57.746;11.780;2023-06-04T00:25:27;101845.09;;;13.17;79.92
57827;BME280;43656;57.746;11.780;2023-06-04T00:27:52;101846.72;;;13.11;79.71
57827;BME280;43656;57.746;11.780;2023-06-04T00:30:19;101842.06;;;13.05;79.79
57827;BME280;43656;57.746;11.780;2023-06-04T00:32:45;101838.69;;;13.03;79.91
57827;BME280;43656;57.746;11.780;2023-06-04T00:35:12;101840.94;;;13.00;79.97
57827;BME280;43656;57.746;11.780;2023-06-04T00:37:38;101837.59;;;12.98;79.91
57827;BME280;43656;57.746;11.780;2023-06-04T00:40:04;101838.81;;;12.95;80.21
57827;BME280;43656;57.746;11.780;2023-06-04T00:42:31;101821.78;;;12.80;79.98
57827;BME280;43656;57.746;11.780;2023-06-04T00:44:56;101836.88;;;12.89;80.08
57827;BME280;43656;57.746;11.780;2023-06-04T00:47:23;101833.44;;;12.80;79.97
57827;BME280;43656;57.746;11.780;2023-06-04T00:49:48;101832.31;;;12.75;80.18
57827;BME280;43656;57.746;11.780;2023-06-04T00:52:14;101827.22;;;12.65;80.09
57827;BME280;43656;57.746;11.780;2023-06-04T00:54:40;101812.59;;;12.44;80.46
57827;BME280;43656;57.746;11.780;2023-06-04T00:57:07;101827.22;;;12.50;80.39
57827;BME280;43656;57.746;11.780;2023-06-04T00:59:35;101821.06;;;12.41;80.68
57827;BME280;43656;57.746;11.780;2023-06-04T01:02:06;101826.97;;;12.45;80.47
57827;BME280;43656;57.746;11.780;2023-06-04T01:04:39;101825.94;;;12.46;80.46
57827;BME280;43656;57.746;11.780;2023-06-04T01:07:09;101828.81;;;12.44;80.52
57827;BME280;43656;57.746;11.780;2023-06-04T01:09:36;101830.41;;;12.39;80.77
57827;BME280;43656;57.746;11.780;2023-06-04T01:12:06;101830.78;;;12.36;80.98
57827;BME280;43656;57.746;11.780;2023-06-04T01:14:32;101831.97;;;12.33;80.96
57827;BME280;43656;57.746;11.780;2023-06-04T01:22:33;101829.84;;;12.29;81.09
57827;BME280;43656;57.746;11.780;2023-06-04T01:25:21;101831.78;;;12.20;81.26
57827;BME280;43656;57.746;11.780;2023-06-04T01:27:55;101814.56;;;12.06;81.06
57827;BME280;43656;57.746;11.780;2023-06-04T01:30:26;101833.06;;;12.09;80.88
57827;BME280;43656;57.746;11.780;2023-06-04T01:32:56;101828.41;;;12.03;81.29
57827;BME280;43656;57.746;11.780;2023-06-04T01:35:22;101818.25;;;11.90;80.89
57827;BME280;43656;57.746;11.780;2023-06-04T01:37:48;101808.34;;;11.83;80.94
57827;BME280;43656;57.746;11.780;2023-06-04T01:40:14;101825.59;;;11.96;81.33
57827;BME280;43656;57.746;11.780;2023-06-04T01:42:43;101817.56;;;11.88;81.53
57827;BME280;43656;57.746;11.780;2023-06-04T01:45:09;101837.22;;;11.97;81.33
57827;BME280;43656;57.746;11.780;2023-06-04T01:47:35;101840.75;;;11.97;81.80
57827;BME280;43656;57.746;11.780;2023-06-04T01:50:05;101822.25;;;11.94;81.56
57827;BME280;43656;57.746;11.780;2023-06-04T01:52:37;101806.75;;;11.73;81.87
57827;BME280;43656;57.746;11.780;2023-06-04T01:55:09;101835.97;;;11.85;81.73
57827;BME280;43656;57.746;11.780;2023-06-04T01:57:37;101839.88;;;11.82;81.69
57827;BME280;43656;57.746;11.780;2023-06-04T02:00:04;101844.41;;;11.82;81.78
57827;BME280;43656;57.746;11.780;2023-06-04T02:02:33;101843.47;;;11.74;81.44
57827;BME280;43656;57.746;11.780;2023-06-04T02:04:58;101841.97;;;11.72;81.58
57827;BME280;43656;57.746;11.780;2023-06-04T02:07:23;101844.38;;;11.67;81.24
57827;BME280;43656;57.746;11.780;2023-06-04T02:09:49;101838.03;;;11.60;81.55
57827;BME280;43656;57.746;11.780;2023-06-04T02:12:15;101842.28;;;11.54;81.31
57827;BME280;43656;57.746;11.780;2023-06-04T02:14:41;101841.81;;;11.50;81.62
57827;BME280;43656;57.746;11.780;2023-06-04T02:17:07;101840.97;;;11.50;81.35
57827;BME280;43656;57.746;11.780;2023-06-04T02:19:47;101843.31;;;11.53;81.41
57827;BME280;43656;57.746;11.780;2023-06-04T02:22:19;101841.25;;;11.55;81.34
57827;BME280;43656;57.746;11.780;2023-06-04T02:24:45;101840.97;;;11.50;80.88
57827;BME280;43656;57.746;11.780;2023-06-04T02:27:11;101825.59;;;11.36;80.79
57827;BME280;43656;57.746;11.780;2023-06-04T02:29:41;101841.69;;;11.44;81.09
57827;BME280;43656;57.746;11.780;2023-06-04T02:32:07;101845.75;;;11.40;80.71
57827;BME280;43656;57.746;11.780;2023-06-04T02:34:32;101848.81;;;11.37;81.08
57827;BME280;43656;57.746;11.780;2023-06-04T02:36:59;101846.13;;;11.37;80.85
57827;BME280;43656;57.746;11.780;2023-06-04T02:39:25;101851.31;;;11.38;80.34
57827;BME280;43656;57.746;11.780;2023-06-04T02:41:50;101858.03;;;11.42;80.31
57827;BME280;43656;57.746;11.780;2023-06-04T02:44:16;101863.25;;;11.44;80.45
57827;BME280;43656;57.746;11.780;2023-06-04T02:46:41;101863.25;;;11.44;80.29
57827;BME280;43656;57.746;11.780;2023-06-04T02:49:07;101856.69;;;11.38;80.19
57827;BME280;43656;57.746;11.780;2023-06-04T02:51:32;101878.38;;;11.45;80.18
57827;BME280;43656;57.746;11.780;2023-06-04T02:53:58;101850.06;;;11.26;79.76
57827;BME280;43656;57.746;11.780;2023-06-04T02:56:23;101870.84;;;11.40;79.69
57827;BME280;43656;57.746;11.780;2023-06-04T02:58:53;101878.59;;;11.43;79.93
57827;BME280;43656;57.746;11.780;2023-06-04T03:01:21;101871.81;;;11.47;80.22
57827;BME280;43656;57.746;11.780;2023-06-04T03:03:47;101876.28;;;11.55;80.25
57827;BME280;43656;57.746;11.780;2023-06-04T03:06:14;101881.66;;;11.63;79.76
57827;BME280;43656;57.746;11.780;2023-06-04T03:08:40;101870.19;;;11.61;79.53
57827;BME280;43656;57.746;11.780;2023-06-04T03:11:06;101893.50;;;11.77;79.32
57827;BME280;43656;57.746;11.780;2023-06-04T03:13:32;101894.31;;;11.86;79.37
57827;BME280;43656;57.746;11.780;2023-06-04T03:15:58;101884.00;;;11.89;78.98
57827;BME280;43656;57.746;11.780;2023-06-04T03:18:29;101880.31;;;12.05;79.04
57827;BME280;43656;57.746;11.780;2023-06-04T03:20:55;101889.03;;;12.30;78.40
57827;BME280;43656;57.746;11.780;2023-06-04T03:23:21;101895.38;;;12.52;78.09
57827;BME280;43656;57.746;11.780;2023-06-04T03:25:47;101901.97;;;12.64;77.64
57827;BME280;43656;57.746;11.780;2023-06-04T03:28:12;101877.78;;;12.56;78.01
57827;BME280;43656;57.746;11.780;2023-06-04T03:30:39;101902.53;;;12.75;78.12
57827;BME280;43656;57.746;11.780;2023-06-04T03:33:05;101875.91;;;12.57;78.25
57827;BME280;43656;57.746;11.780;2023-06-04T03:35:30;101891.47;;;12.69;78.91
57827;BME280;43656;57.746;11.780;2023-06-04T03:37:56;101899.91;;;12.81;78.60
57827;BME280;43656;57.746;11.780;2023-06-04T03:40:21;101895.84;;;12.85;78.48
57827;BME280;43656;57.746;11.780;2023-06-04T03:42:47;101889.75;;;13.13;78.44
57827;BME280;43656;57.746;11.780;2023-06-04T03:45:12;101895.94;;;13.43;78.30
57827;BME280;43656;57.746;11.780;2023-06-04T03:47:38;101898.28;;;13.68;78.09
57827;BME280;43656;57.746;11.780;2023-06-04T03:50:05;101896.16;;;13.63;78.49
57827;BME280;43656;57.746;11.780;2023-06-04T03:52:30;101893.19;;;13.79;77.87
57827;BME280;43656;57.746;11.780;2023-06-04T03:54:56;101900.75;;;14.12;76.81
57827;BME280;43656;57.746;11.780;2023-06-04T03:57:22;101861.31;;;14.24;75.38
57827;BME280;43656;57.746;11.780;2023-06-04T03:59:47;101908.06;;;14.68;74.06
57827;BME280;43656;57.746;11.780;2023-06-04T04:02:13;101904.91;;;15.06;72.64
57827;BME280;43656;57.746;11.780;2023-06-04T04:04:38;101906.13;;;15.58;70.73
57827;BME280;43656;57.746;11.780;2023-06-04T04:07:04;101908.31;;;16.02;68.97
57827;BME280;43656;57.746;11.780;2023-06-04T04:09:29;101908.09;;;16.50;67.36
57827;BME280;43656;57.746;11.780;2023-06-04T04:11:55;101903.28;;;16.59;66.63
57827;BME280;43656;57.746;11.780;2023-06-04T04:14:20;101910.09;;;16.88;66.37
57827;BME280;43656;57.746;11.780;2023-06-04T04:16:46;101907.22;;;17.28;65.48
57827;BME280;43656;57.746;11.780;2023-06-04T04:19:12;101904.78;;;17.51;64.05
57827;BME280;43656;57.746;11.780;2023-06-04T04:21:37;101894.09;;;17.56;63.37
57827;BME280;43656;57.746;11.780;2023-06-04T04:24:04;101894.63;;;17.72;63.14
57827;BME280;43656;57.746;11.780;2023-06-04T04:26:29;101909.13;;;17.97;62.72
57827;BME280;43656;57.746;11.780;2023-06-04T04:28:55;101896.06;;;18.06;62.31
57827;BME280;43656;57.746;11.780;2023-06-04T04:31:24;101889.19;;;18.28;61.86
57827;BME280;43656;57.746;11.780;2023-06-04T04:33:49;101892.28;;;18.75;60.82
57827;BME280;43656;57.746;11.780;2023-06-04T04:36:16;101907.25;;;19.03;59.82
57827;BME280;43656;57.746;11.780;2023-06-04T04:38:46;101905.28;;;19.29;59.10
57827;BME280;43656;57.746;11.780;2023-06-04T04:41:19;101904.03;;;19.73;57.98
57827;BME280;43656;57.746;11.780;2023-06-04T04:43:46;101906.13;;;20.01;56.92
57827;BME280;43656;57.746;11.780;2023-06-04T04:46:11;101902.81;;;20.11;56.25
57827;BME280;43656;57.746;11.780;2023-06-04T04:48:37;101900.06;;;20.46;55.67
57827;BME280;43656;57.746;11.780;2023-06-04T04:51:03;101905.19;;;20.66;54.99
57827;BME280;43656;57.746;11.780;2023-06-04T04:53:29;101894.38;;;20.59;55.05
57827;BME280;43656;57.746;11.780;2023-06-04T04:55:55;101912.31;;;20.79;54.43
57827;BME280;43656;57.746;11.780;2023-06-04T04:58:20;101907.97;;;20.54;54.94
57827;BME280;43656;57.746;11.780;2023-06-04T05:00:45;101906.09;;;20.95;54.40
57827;BME280;43656;57.746;11.780;2023-06-04T05:03:13;101911.28;;;21.49;53.64
57827;BME280;43656;57.746;11.780;2023-06-04T05:05:38;101907.38;;;21.73;53.08
57827;BME280;43656;57.746;11.780;2023-06-04T05:08:04;101909.63;;;21.93;52.62
57827;BME280;43656;57.746;11.780;2023-06-04T05:10:30;101901.47;;;21.98;52.44
57827;BME280;43656;57.746;11.780;2023-06-04T05:12:59;101909.50;;;22.17;52.28
57827;BME280;43656;57.746;11.780;2023-06-04T05:15:26;101911.78;;;21.91;52.60
57827;BME280;43656;57.746;11.780;2023-06-04T05:17:52;101914.78;;;21.90;53.04
57827;BME280;43656;57.746;11.780;2023-06-04T05:20:19;101921.88;;;21.57;52.96
57827;BME280;43656;57.746;11.780;2023-06-04T05:22:46;101923.03;;;21.61;53.04
57827;BME280;43656;57.746;11.780;2023-06-04T05:25:11;101908.63;;;21.37;53.42
57827;BME280;43656;57.746;11.780;2023-06-04T05:27:37;101896.09;;;21.41;53.75
57827;BME280;43656;57.746;11.780;2023-06-04T05:30:03;101922.84;;;21.51;54.07
57827;BME280;43656;57.746;11.780;2023-06-04T05:32:29;101925.31;;;21.12;55.19
57827;BME280;43656;57.746;11.780;2023-06-04T05:34:57;101921.81;;;21.00;55.86
57827;BME280;43656;57.746;11.780;2023-06-04T05:37:24;101919.56;;;20.97;55.90
57827;BME280;43656;57.746;11.780;2023-06-04T05:39:52;101928.72;;;20.91;56.67
57827;BME280;43656;57.746;11.780;2023-06-04T05:42:17;101925.03;;;20.85;56.95
57827;BME280;43656;57.746;11.780;2023-06-04T05:44:43;101911.25;;;20.80;57.16
57827;BME280;43656;57.746;11.780;2023-06-04T05:47:08;101932.41;;;20.96;57.26
57827;BME280;43656;57.746;11.780;2023-06-04T05:49:34;101926.47;;;20.87;57.29
57827;BME280;43656;57.746;11.780;2023-06-04T05:52:00;101929.22;;;20.64;57.88
57827;BME280;43656;57.746;11.780;2023-06-04T05:54:26;101936.38;;;20.77;57.71
57827;BME280;43656;57.746;11.780;2023-06-04T05:56:52;101928.16;;;20.77;58.10
57827;BME280;43656;57.746;11.780;2023-06-04T05:59:17;101941.22;;;20.86;58.08
57827;BME280;43656;57.746;11.780;2023-06-04T06:01:43;101936.94;;;20.79;58.65
57827;BME280;43656;57.746;11.780;2023-06-04T06:04:08;101942.31;;;20.62;59.99
57827;BME280;43656;57.746;11.780;2023-06-04T06:06:35;101951.34;;;20.62;59.67
57827;BME280;43656;57.746;11.780;2023-06-04T06:09:01;101944.78;;;20.40;60.93
57827;BME280;43656;57.746;11.780;2023-06-04T06:11:26;101950.59;;;20.44;60.99
57827;BME280;43656;57.746;11.780;2023-06-04T06:13:52;101950.22;;;20.28;61.87
57827;BME280;43656;57.746;11.780;2023-06-04T06:16:18;101946.78;;;20.21;62.18
57827;BME280;43656;57.746;11.780;2023-06-04T06:18:43;101958.69;;;19.85;63.94
57827;BME280;43656;57.746;11.780;2023-06-04T06:21:09;101962.09;;;19.68;65.16
57827;BME280;43656;57.746;11.780;2023-06-04T06:23:34;101958.75;;;19.48;66.52
57827;BME280;43656;57.746;11.780;2023-06-04T06:26:01;101952.72;;;19.28;67.20
57827;BME280;43656;57.746;11.780;2023-06-04T06:28:27;101965.69;;;19.32;68.01
57827;BME280;43656;57.746;11.780;2023-06-04T06:30:53;101963.88;;;19.56;66.64
57827;BME280;43656;57.746;11.780;2023-06-04T06:33:18;101966.47;;;19.69;66.00
57827;BME280;43656;57.746;11.780;2023-06-04T06:35:47;101961.94;;;19.63;67.27
57827;BME280;43656;57.746;11.780;2023-06-04T06:38:12;101959.50;;;19.74;67.01
57827;BME280;43656;57.746;11.780;2023-06-04T06:40:38;101971.00;;;19.76;66.62
57827;BME280;43656;57.746;11.780;2023-06-04T06:43:03;101968.78;;;19.84;66.46
57827;BME280;43656;57.746;11.780;2023-06-04T06:45:29;101978.47;;;19.68;66.93
57827;BME280;43656;57.746;11.780;2023-06-04T06:47:54;101972.28;;;20.03;65.97
57827;BME280;43656;57.746;11.780;2023-06-04T06:50:19;101970.78;;;19.77;66.71
57827;BME280;43656;57.746;11.780;2023-06-04T06:52:45;101977.25;;;19.94;65.90
57827;BME280;43656;57.746;11.780;2023-06-04T06:55:10;101967.69;;;19.74;66.49
57827;BME280;43656;57.746;11.780;2023-06-04T06:57:36;101966.63;;;19.86;66.62
57827;BME280;43656;57.746;11.780;2023-06-04T07:00:01;101968.28;;;19.76;66.15
57827;BME280;43656;57.746;11.780;2023-06-04T07:02:28;101975.19;;;19.78;66.74
57827;BME280;43656;57.746;11.780;2023-06-04T07:04:54;101967.34;;;19.82;66.87
57827;BME280;43656;57.746;11.780;2023-06-04T07:07:19;101981.19;;;19.68;67.07
57827;BME280;43656;57.746;11.780;2023-06-04T07:09:45;101985.84;;;19.31;68.46
57827;BME280;43656;57.746;11.780;2023-06-04T07:12:11;101984.13;;;19.18;69.52
57827;BME280;43656;57.746;11.780;2023-06-04T07:14:36;101996.38;;;19.09;70.05
57827;BME280;43656;57.746;11.780;2023-06-04T07:17:02;101984.66;;;19.27;69.35
57827;BME280;43656;57.746;11.780;2023-06-04T07:19:27;101992.09;;;19.50;68.20
57827;BME280;43656;57.746;11.780;2023-06-04T07:21:54;101995.16;;;19.23;68.41
57827;BME280;43656;57.746;11.780;2023-06-04T07:24:19;101995.47;;;18.97;70.11
57827;BME280;43656;57.746;11.780;2023-06-04T07:26:45;101997.91;;;19.05;69.84
57827;BME280;43656;57.746;11.780;2023-06-04T07:29:11;101996.53;;;18.96;69.80
57827;BME280;43656;57.746;11.780;2023-06-04T07:31:36;101982.03;;;18.77;69.73
57827;BME280;43656;57.746;11.780;2023-06-04T07:34:02;102001.28;;;18.82;70.01
57827;BME280;43656;57.746;11.780;2023-06-04T07:36:28;102001.91;;;18.84;70.00
57827;BME280;43656;57.746;11.780;2023-06-04T07:38:54;102001.13;;;18.70;69.99
57827;BME280;43656;57.746;11.780;2023-06-04T07:41:19;102004.53;;;18.72;68.86
57827;BME280;43656;57.746;11.780;2023-06-04T07:43:46;102000.84;;;18.85;69.19
57827;BME280;43656;57.746;11.780;2023-06-04T07:46:12;101996.91;;;18.99;68.59
57827;BME280;43656;57.746;11.780;2023-06-04T07:48:37;101990.72;;;19.11;67.75
57827;BME280;43656;57.746;11.780;2023-06-04T07:51:03;101996.22;;;19.22;67.74
57827;BME280;43656;57.746;11.780;2023-06-04T07:53:29;101984.72;;;19.20;67.35
57827;BME280;43656;57.746;11.780;2023-06-04T07:55:56;102006.28;;;19.04;67.62
57827;BME280;43656;57.746;11.780;2023-06-04T07:58:22;102002.06;;;18.89;68.40
57827;BME280;43656;57.746;11.780;2023-06-04T08:00:50;102009.78;;;18.92;68.51
57827;BME280;43656;57.746;11.780;2023-06-04T08:03:16;102005.41;;;19.10;66.85
57827;BME280;43656;57.746;11.780;2023-06-04T08:05:51;101984.47;;;18.85;66.94
57827;BME280;43656;57.746;11.780;2023-06-04T08:08:17;102004.03;;;19.19;66.06
57827;BME280;43656;57.746;11.780;2023-06-04T08:10:42;102002.75;;;19.21;65.48
57827;BME280;43656;57.746;11.780;2023-06-04T08:13:08;102014.13;;;19.18;65.71
57827;BME280;43656;57.746;11.780;2023-06-04T08:15:36;102009.81;;;19.29;65.45
57827;BME280;43656;57.746;11.780;2023-06-04T08:18:02;101990.41;;;19.19;65.32
57827;BME280;43656;57.746;11.780;2023-06-04T08:20:27;102005.50;;;19.21;65.57
57827;BME280;43656;57.746;11.780;2023-06-04T08:22:53;102004.63;;;19.39;64.86
57827;BME280;43656;57.746;11.780;2023-06-04T08:25:18;102006.78;;;19.19;65.33
57827;BME280;43656;57.746;11.780;2023-06-04T08:27:43;102017.75;;;19.12;65.69
57827;BME280;43656;57.746;11.780;2023-06-04T08:30:09;102016.84;;;19.18;67.05
57827;BME280;43656;57.746;11.780;2023-06-04T08:32:35;102005.63;;;19.27;66.68
57827;BME280;43656;57.746;11.780;2023-06-04T08:35:01;102021.75;;;19.10;66.46
57827;BME280;43656;57.746;11.780;2023-06-04T08:37:26;102021.09;;;19.14;66.10
57827;BME280;43656;57.746;11.780;2023-06-04T08:39:51;102013.97;;;19.13;64.99
57827;BME280;43656;57.746;11.780;2023-06-04T08:42:43;102016.84;;;19.18;64.91
57827;BME280;43656;57.746;11.780;2023-06-04T08:45:11;102014.66;;;19.09;65.22
57827;BME280;43656;57.746;11.780;2023-06-04T08:47:44;102017.00;;;19.05;65.04
57827;BME280;43656;57.746;11.780;2023-06-04T08:50:10;102010.47;;;19.06;65.47
57827;BME280;43656;57.746;11.780;2023-06-04T08:52:37;102026.16;;;19.29;65.87
57827;BME280;43656;57.746;11.780;2023-06-04T08:55:04;102025.25;;;19.35;66.11
57827;BME280;43656;57.746;11.780;2023-06-04T08:57:32;102021.84;;;19.40;66.67
57827;BME280;43656;57.746;11.780;2023-06-04T08:59:58;102024.44;;;19.71;66.81
57827;BME280;43656;57.746;11.780;2023-06-04T09:02:27;102031.06;;;19.94;66.61
57827;BME280;43656;57.746;11.780;2023-06-04T09:04:53;102035.22;;;19.97;66.67
57827;BME280;43656;57.746;11.780;2023-06-04T09:07:19;102027.94;;;20.21;66.24
57827;BME280;43656;57.746;11.780;2023-06-04T09:09:46;102023.81;;;20.41;65.43
57827;BME280;43656;57.746;11.780;2023-06-04T09:12:18;102017.59;;;20.23;65.40
57827;BME280;43656;57.746;11.780;2023-06-04T09:14:47;102026.06;;;19.91;66.42
57827;BME280;43656;57.746;11.780;2023-06-04T09:17:12;102027.78;;;19.74;66.98
57827;BME280;43656;57.746;11.780;2023-06-04T09:19:38;102022.91;;;19.57;68.47
57827;BME280;43656;57.746;11.780;2023-06-04T09:22:03;102034.59;;;19.46;70.09
57827;BME280;43656;57.746;11.780;2023-06-04T09:24:42;102027.75;;;19.55;68.90
57827;BME280;43656;57.746;11.780;2023-06-04T09:27:12;102030.31;;;19.50;68.50
57827;BME280;43656;57.746;11.780;2023-06-04T09:29:38;102029.44;;;19.75;67.93
57827;BME280;43656;57.746;11.780;2023-06-04T09:32:04;102023.78;;;19.88;68.04
57827;BME280;43656;57.746;11.780;2023-06-04T09:34:30;102026.16;;;19.84;68.99
57827;BME280;43656;57.746;11.780;2023-06-04T09:36:56;102029.47;;;19.86;68.75
57827;BME280;43656;57.746;11.780;2023-06-04T09:39:22;102032.09;;;19.93;68.90
57827;BME280;43656;57.746;11.780;2023-06-04T09:42:02;102027.59;;;19.87;69.01
57827;BME280;43656;57.746;11.780;2023-06-04T09:44:30;102008.69;;;19.85;68.96
57827;BME280;43656;57.746;11.780;2023-06-04T09:46:56;102030.88;;;20.07;68.57
57827;BME280;43656;57.746;11.780;2023-06-04T09:49:22;102021.97;;;20.12;68.11
57827;BME280;43656;57.746;11.780;2023-06-04T09:51:48;102022.00;;;20.24;67.93
57827;BME280;43656;57.746;11.780;2023-06-04T09:54:14;102033.16;;;20.10;68.49
57827;BME280;43656;57.746;11.780;2023-06-04T09:56:40;102027.13;;;20.32;68.31
57827;BME280;43656;57.746;11.780;2023-06-04T09:59:08;102026.03;;;20.33;68.13
57827;BME280;43656;57.746;11.780;2023-06-04T10:01:39;102027.19;;;20.55;67.05
57827;BME280;43656;57.746;11.780;2023-06-04T10:04:07;102021.59;;;20.50;66.97
57827;BME280;43656;57.746;11.780;2023-06-04T10:06:34;102017.06;;;20.44;67.03
57827;BME280;43656;57.746;11.780;2023-06-04T10:09:08;102017.53;;;20.41;66.99
57827;BME280;43656;57.746;11.780;2023-06-04T10:11:35;102007.97;;;20.20;67.67
57827;BME280;43656;57.746;11.780;2023-06-04T10:14:05;102005.44;;;20.07;68.47
57827;BME280;43656;57.746;11.780;2023-06-04T10:16:33;102020.63;;;20.03;68.84
57827;BME280;43656;57.746;11.780;2023-06-04T10:18:59;102034.44;;;19.78;70.33
57827;BME280;43656;57.746;11.780;2023-06-04T10:21:26;102013.66;;;19.58;71.40
57827;BME280;43656;57.746;11.780;2023-06-04T10:23:51;102039.16;;;19.70;71.16
57827;BME280;43656;57.746;11.780;2023-06-04T10:26:17;102037.00;;;20.03;70.17
57827;BME280;43656;57.746;11.780;2023-06-04T10:28:43;102035.41;;;20.13;70.01
57827;BME280;43656;57.746;11.780;2023-06-04T10:31:10;102033.03;;;20.17;69.64
57827;BME280;43656;57.746;11.780;2023-06-04T10:33:36;102036.25;;;20.26;68.51
57827;BME280;43656;57.746;11.780;2023-06-04T10:36:16;102032.84;;;20.30;68.10
57827;BME280;43656;57.746;11.780;2023-06-04T10:38:46;102029.09;;;20.55;68.14
57827;BME280;43656;57.746;11.780;2023-06-04T10:41:16;102044.22;;;20.81;68.11
57827;BME280;43656;57.746;11.780;2023-06-04T10:43:44;102041.63;;;21.09;66.98
57827;BME280;43656;57.746;11.780;2023-06-04T10:46:14;102042.78;;;21.02;67.30
57827;BME280;43656;57.746;11.780;2023-06-04T10:48:53;102042.69;;;20.73;68.07
57827;BME280;43656;57.746;11.780;2023-06-04T10:51:34;102043.13;;;20.58;68.20
57827;BME280;43656;57.746;11.780;2023-06-04T10:54:02;102048.75;;;20.87;67.50
57827;BME280;43656;57.746;11.780;2023-06-04T10:56:32;102044.81;;;20.95;66.66
57827;BME280;43656;57.746;11.780;2023-06-04T10:58:59;102043.38;;;20.69;67.49
57827;BME280;43656;57.746;11.780;2023-06-04T11:01:28;102049.97;;;20.49;68.89
57827;BME280;43656;57.746;11.780;2023-06-04T11:03:55;102054.13;;;20.40;68.53
57827;BME280;43656;57.746;11.780;2023-06-04T11:06:21;102064.31;;;20.33;69.42
57827;BME280;43656;57.746;11.780;2023-06-04T11:08:47;102054.66;;;20.18;70.78
57827;BME280;43656;57.746;11.780;2023-06-04T11:11:14;102058.66;;;20.46;70.18
57827;BME280;43656;57.746;11.780;2023-06-04T11:13:40;102054.41;;;20.50;69.99
57827;BME280;43656;57.746;11.780;2023-06-04T11:16:20;102051.25;;;20.77;69.00
57827;BME280;43656;57.746;11.780;2023-06-04T11:18:56;102053.16;;;21.00;68.05
57827;BME280;43656;57.746;11.780;2023-06-04T11:21:22;102051.47;;;20.99;67.68
57827;BME280;43656;57.746;11.780;2023-06-04T11:23:48;102046.59;;;21.24;66.04
57827;BME280;43656;57.746;11.780;2023-06-04T11:26:13;102049.56;;;21.23;66.34
57827;BME280;43656;57.746;11.780;2023-06-04T11:28:39;102050.25;;;21.42;65.47
57827;BME280;43656;57.746;11.780;2023-06-04T11:31:06;102043.00;;;21.47;64.82
57827;BME280;43656;57.746;11.780;2023-06-04T11:33:47;102043.13;;;21.05;65.61
57827;BME280;43656;57.746;11.780;2023-06-04T11:36:26;102050.41;;;21.11;66.06
57827;BME280;43656;57.746;11.780;2023-06-04T11:41:22;102045.06;;;21.17;64.34
57827;BME280;43656;57.746;11.780;2023-06-04T11:43:48;102046.59;;;21.24;64.38
57827;BME280;43656;57.746;11.780;2023-06-04T11:46:14;102048.00;;;21.15;64.62
57827;BME280;43656;57.746;11.780;2023-06-04T11:48:39;102046.34;;;21.02;65.19
57827;BME280;43656;57.746;11.780;2023-06-04T11:51:07;102042.66;;;21.20;64.81
57827;BME280;43656;57.746;11.780;2023-06-04T11:53:35;102048.13;;;21.44;64.20
57827;BME280;43656;57.746;11.780;2023-06-04T11:56:01;102044.69;;;21.37;64.36
57827;BME280;43656;57.746;11.780;2023-06-04T11:58:27;102047.25;;;21.55;64.40
57827;BME280;43656;57.746;11.780;2023-06-04T12:00:53;102046.13;;;21.04;65.08
57827;BME280;43656;57.746;11.780;2023-06-04T12:03:33;102052.34;;;20.99;66.53
57827;BME280;43656;57.746;11.780;2023-06-04T12:05:58;102060.63;;;20.81;67.59
57827;BME280;43656;57.746;11.780;2023-06-04T12:08:24;102051.72;;;20.85;67.84
57827;BME280;43656;57.746;11.780;2023-06-04T12:10:49;102064.47;;;20.80;66.90
57827;BME280;43656;57.746;11.780;2023-06-04T12:13:16;102055.72;;;20.59;67.08
57827;BME280;43656;57.746;11.780;2023-06-04T12:15:41;102052.91;;;20.36;67.94
57827;BME280;43656;57.746;11.780;2023-06-04T12:18:07;102068.06;;;20.50;68.36
57827;BME280;43656;57.746;11.780;2023-06-04T12:20:36;102063.28;;;20.46;69.15
57827;BME280;43656;57.746;11.780;2023-06-04T12:23:03;102069.03;;;20.56;68.90
57827;BME280;43656;57.746;11.780;2023-06-04T12:25:29;102064.03;;;20.53;68.97
57827;BME280;43656;57.746;11.780;2023-06-04T12:27:55;102052.53;;;20.51;69.17
57827;BME280;43656;57.746;11.780;2023-06-04T12:30:21;102074.66;;;20.73;69.32
57827;BME280;43656;57.746;11.780;2023-06-04T12:32:48;102062.09;;;20.41;70.10
57827;BME280;43656;57.746;11.780;2023-06-04T12:35:13;102067.38;;;20.55;70.33
57827;BME280;43656;57.746;11.780;2023-06-04T12:37:41;102062.59;;;20.50;69.94
57827;BME280;43656;57.746;11.780;2023-06-04T12:40:07;102054.81;;;20.35;69.07
57827;BME280;43656;57.746;11.780;2023-06-04T12:42:32;102073.75;;;20.37;70.09
57827;BME280;43656;57.746;11.780;2023-06-04T12:44:58;102073.47;;;20.27;70.26
57827;BME280;43656;57.746;11.780;2023-06-04T12:47:23;102067.63;;;20.53;69.44